createdAt,value
2019-04-19T00:01:02.730Z,46.00
2019-04-19T00:03:34.246Z,46.10
2019-04-19T00:06:28.846Z,46.20
2019-04-19T00:09:12.194Z,46.20
2019-04-19T00:11:39.580Z,46.00
2019-04-19T00:14:02.830Z,46.40
2019-04-19T00:16:53.051Z,46.60
2019-04-19T00:19:45.511Z,46.60
2019-04-19T00:22:18.804Z,46.80
2019-04-19T00:24:35.623Z,46.80
2019-04-19T00:27:11.720Z,46.80
2019-04-19T00:29:53.103Z,47.00
2019-04-19T00:32:36.023Z,47.00
2019-04-19T00:34:57.404Z,47.20
2019-04-19T00:37:33.889Z,47.10
2019-04-19T00:40:31.194Z,47.20
2019-04-19T00:43:05.314Z,47.10
2019-04-19T00:45:58.597Z,47.10
2019-04-19T00:48:29.985Z,47.50
2019-04-19T00:50:56.293Z,47.40
2019-04-19T00:53:27.479Z,48.00
2019-04-19T00:55:57.449Z,47.60
2019-04-19T00:58:29.321Z,47.80
2019-04-19T01:00:57.886Z,47.90
2019-04-19T01:03:34.531Z,48.30
2019-04-19T01:09:30.111Z,48.50
2019-04-19T01:12:15.444Z,48.40
2019-04-19T01:14:45.508Z,48.50
2019-04-19T01:17:34.924Z,48.60
2019-04-19T01:20:02.027Z,48.70
2019-04-19T01:22:38.124Z,48.90
2019-04-19T01:25:27.479Z,49.00
2019-04-19T01:28:10.083Z,49.20
2019-04-19T01:30:47.687Z,49.50
2019-04-19T01:33:38.970Z,49.80
2019-04-19T01:36:24.674Z,49.90
2019-04-19T01:39:22.000Z,50.20
2019-04-19T01:41:56.867Z,50.40
2019-04-19T01:44:42.304Z,50.60
2019-04-19T01:47:42.169Z,50.40
2019-04-19T01:50:17.343Z,50.50
2019-04-19T01:53:04.521Z,50.20
2019-04-19T01:55:44.764Z,49.90
2019-04-19T01:58:18.923Z,49.70
2019-04-19T02:00:52.163Z,49.90
2019-04-19T02:03:24.899Z,49.90
2019-04-19T02:06:01.280Z,50.00
2019-04-19T02:08:27.087Z,50.00
2019-04-19T02:11:44.188Z,50.10
2019-04-19T02:14:12.094Z,50.00
2019-04-19T02:16:51.210Z,50.20
2019-04-19T02:19:19.507Z,50.40
2019-04-19T02:21:48.736Z,50.60
2019-04-19T02:24:27.938Z,50.20
2019-04-19T02:26:59.415Z,50.60
2019-04-19T02:29:29.650Z,50.60
2019-04-19T02:32:17.382Z,50.80
2019-04-19T02:35:09.543Z,50.80
2019-04-19T02:39:05.121Z,51.20
2019-04-19T02:44:10.759Z,51.10
2019-04-19T02:49:24.314Z,51.10
2019-04-19T02:51:43.672Z,51.00
2019-04-19T02:57:22.385Z,51.10
2019-04-19T02:59:59.102Z,51.10
2019-04-19T03:02:42.231Z,51.30
2019-04-19T03:05:10.669Z,51.30
2019-04-19T03:07:11.390Z,51.40
2019-04-19T03:09:44.080Z,51.60
2019-04-19T03:12:36.746Z,51.80
2019-04-19T03:15:04.377Z,51.70
2019-04-19T03:17:44.523Z,51.80
2019-04-19T03:20:18.042Z,52.00
2019-04-19T03:22:49.496Z,51.80
2019-04-19T03:25:22.979Z,52.10
2019-04-19T03:27:55.341Z,52.40
2019-04-19T03:30:35.191Z,52.40
2019-04-19T03:35:43.523Z,52.70
2019-04-19T03:38:14.179Z,53.10
2019-04-19T03:40:46.781Z,53.00
2019-04-19T03:43:42.788Z,53.20
2019-04-19T03:46:08.113Z,53.30
2019-04-19T03:48:39.014Z,53.30
2019-04-19T03:51:08.972Z,53.50
2019-04-19T03:56:19.114Z,54.40
2019-04-19T03:58:30.368Z,54.80
2019-04-19T04:01:02.399Z,55.10
2019-04-19T04:03:37.603Z,55.30
2019-04-19T04:06:06.138Z,55.50
2019-04-19T04:08:47.277Z,55.70
2019-04-19T04:11:34.615Z,56.20
2019-04-19T04:14:26.762Z,56.40
2019-04-19T04:17:10.039Z,57.10
2019-04-19T04:19:41.414Z,57.70
2019-04-19T04:22:20.831Z,58.10
2019-04-19T04:24:56.108Z,58.20
2019-04-19T04:27:51.268Z,58.80
2019-04-19T04:30:19.862Z,59.10
2019-04-19T04:32:57.017Z,59.60
2019-04-19T04:35:30.698Z,59.80
2019-04-19T04:38:04.978Z,60.40
2019-04-19T04:40:25.460Z,61.20
2019-04-19T04:43:09.341Z,61.40
2019-04-19T04:45:59.441Z,61.70
2019-04-19T04:48:32.126Z,61.90
2019-04-19T04:51:21.631Z,62.30
2019-04-19T04:53:39.251Z,63.50
2019-04-19T04:56:17.193Z,63.10
2019-04-19T04:58:49.579Z,63.40
2019-04-19T05:01:32.318Z,63.70
2019-04-19T05:04:10.503Z,63.30
2019-04-19T05:06:46.530Z,63.30
2019-04-19T05:09:19.157Z,63.50
2019-04-19T05:11:46.620Z,63.90
2019-04-19T05:14:21.795Z,63.40
2019-04-19T05:17:03.864Z,64.10
2019-04-19T05:19:28.339Z,64.80
2019-04-19T05:21:56.655Z,65.20
2019-04-19T05:24:33.906Z,65.40
2019-04-19T05:27:11.845Z,65.30
2019-04-19T05:29:26.465Z,65.70
2019-04-19T05:31:54.750Z,65.50
2019-04-19T05:34:44.140Z,65.10
2019-04-19T05:37:12.865Z,64.90
2019-04-19T05:40:08.113Z,64.90
2019-04-19T05:42:42.817Z,65.00
2019-04-19T05:47:44.094Z,64.80
2019-04-19T05:50:26.123Z,64.50
2019-04-19T05:52:48.084Z,63.10
2019-04-19T05:55:06.558Z,63.20
2019-04-19T05:57:53.819Z,63.00
2019-04-19T06:00:25.984Z,62.50
2019-04-19T06:03:09.047Z,62.70
2019-04-19T06:05:51.061Z,63.00
2019-04-19T06:08:05.145Z,62.30
2019-04-19T06:10:33.810Z,62.00
2019-04-19T06:13:04.287Z,61.60
2019-04-19T06:15:55.714Z,60.10
2019-04-19T06:18:38.088Z,59.30
2019-04-19T06:21:19.647Z,58.20
2019-04-19T06:23:54.110Z,57.10
2019-04-19T06:26:53.756Z,56.60
2019-04-19T06:29:06.393Z,56.00
2019-04-19T06:34:42.673Z,52.60
2019-04-19T06:37:06.835Z,50.90
2019-04-19T06:39:33.180Z,48.60
2019-04-19T06:42:09.121Z,45.80
2019-04-19T06:45:00.599Z,44.00
2019-04-19T06:47:24.242Z,42.50
2019-04-19T06:49:45.723Z,41.70
2019-04-19T06:52:26.012Z,40.70
2019-04-19T06:54:53.612Z,39.80
2019-04-19T06:57:30.537Z,39.50
2019-04-19T07:00:12.949Z,38.90
2019-04-19T07:02:45.470Z,39.30
2019-04-19T07:05:46.472Z,41.00
2019-04-19T07:08:54.642Z,42.90
2019-04-19T07:11:00.573Z,44.30
2019-04-19T07:13:46.595Z,45.10
2019-04-19T07:16:40.920Z,45.90
2019-04-19T07:19:13.385Z,46.50
2019-04-19T07:21:48.192Z,46.80
2019-04-19T07:24:30.459Z,46.90
2019-04-19T07:26:52.238Z,47.10
2019-04-19T07:29:08.731Z,47.00
2019-04-19T07:31:41.829Z,47.10
2019-04-19T07:34:30.978Z,46.70
2019-04-19T07:37:03.464Z,46.10
2019-04-19T07:39:49.479Z,45.80
2019-04-19T07:42:19.486Z,45.70
2019-04-19T07:44:47.115Z,45.90
2019-04-19T07:47:30.485Z,45.80
2019-04-19T07:49:59.518Z,45.40
2019-04-19T07:52:40.271Z,44.80
2019-04-19T07:55:12.815Z,44.80
2019-04-19T07:58:12.142Z,44.70
2019-04-19T08:00:54.096Z,44.60
2019-04-19T08:03:25.309Z,44.30
2019-04-19T08:05:55.003Z,43.60
2019-04-19T08:08:45.197Z,43.40
2019-04-19T08:13:58.129Z,41.70
2019-04-19T08:29:07.789Z,33.20
2019-04-19T08:31:29.571Z,32.20
2019-04-19T08:34:08.083Z,31.40
2019-04-19T08:36:43.559Z,30.20
2019-04-19T08:39:30.730Z,29.80
2019-04-19T08:42:08.477Z,29.80
2019-04-19T08:44:38.664Z,29.40
2019-04-19T08:47:34.594Z,29.60
2019-04-19T08:50:13.441Z,29.50
2019-04-19T08:52:50.059Z,28.80
2019-04-19T08:55:36.555Z,28.50
2019-04-19T08:58:07.125Z,28.50
2019-04-19T09:00:59.213Z,28.50
2019-04-19T09:03:19.185Z,27.80
2019-04-19T09:06:26.997Z,28.00
2019-04-19T09:08:48.721Z,27.60
2019-04-19T09:11:24.771Z,27.10
2019-04-19T09:14:05.857Z,26.70
2019-04-19T09:16:43.754Z,26.90
2019-04-19T09:19:33.873Z,26.90
2019-04-19T09:21:41.759Z,26.80
2019-04-19T09:24:15.828Z,26.40
2019-04-19T09:27:07.905Z,26.00
2019-04-19T09:29:45.484Z,26.70
2019-04-19T09:32:06.555Z,26.50
2019-04-19T09:34:46.996Z,26.10
2019-04-19T09:37:36.966Z,25.70
2019-04-19T09:40:03.074Z,25.70
2019-04-19T09:42:43.475Z,25.40
2019-04-19T09:45:10.492Z,24.90
2019-04-19T09:47:46.151Z,24.60
2019-04-19T09:50:41.655Z,24.90
2019-04-19T09:53:28.574Z,25.20
2019-04-19T09:55:49.675Z,24.40
2019-04-19T09:58:21.156Z,24.00
2019-04-19T10:00:38.971Z,23.80
2019-04-19T10:03:23.146Z,23.30
2019-04-19T10:05:46.980Z,23.20
2019-04-19T10:08:21.751Z,23.40
2019-04-19T10:11:01.054Z,23.20
2019-04-19T10:13:32.132Z,23.40
2019-04-19T10:16:22.234Z,23.10
2019-04-19T10:19:01.313Z,23.40
2019-04-19T10:21:40.439Z,23.40
2019-04-19T10:24:27.688Z,23.40
2019-04-19T10:27:26.964Z,23.40
2019-04-19T10:30:00.046Z,23.20
2019-04-19T10:32:38.485Z,23.60
2019-04-19T10:35:11.548Z,23.60
2019-04-19T10:37:45.991Z,23.00
2019-04-19T10:40:19.502Z,23.00
2019-04-19T10:42:53.469Z,22.70
2019-04-19T10:45:27.939Z,22.80
2019-04-19T10:48:05.067Z,22.30
2019-04-19T10:50:47.469Z,22.30
2019-04-19T10:53:22.129Z,22.40
2019-04-19T10:56:09.963Z,22.20
2019-04-19T10:58:47.489Z,22.40
2019-04-19T11:01:27.332Z,22.30
2019-04-19T11:04:02.622Z,22.40
2019-04-19T11:06:49.448Z,22.50
2019-04-19T11:09:24.718Z,22.20
2019-04-19T11:11:59.645Z,21.80
2019-04-19T11:14:44.348Z,22.00
2019-04-19T11:17:20.286Z,21.80
2019-04-19T11:20:17.933Z,21.50
2019-04-19T11:22:35.495Z,21.20
2019-04-19T11:25:06.473Z,21.30
2019-04-19T11:27:37.464Z,21.90
2019-04-19T11:30:17.042Z,21.90
2019-04-19T11:32:52.632Z,21.70
2019-04-19T11:35:27.525Z,21.30
2019-04-19T11:38:00.750Z,20.90
2019-04-19T11:40:44.902Z,20.90
2019-04-19T11:43:16.219Z,20.70
2019-04-19T11:45:51.508Z,20.70
2019-04-19T11:48:43.729Z,20.30
2019-04-19T11:51:14.366Z,20.10
2019-04-19T11:53:48.659Z,20.00
2019-04-19T11:56:46.260Z,20.30
2019-04-19T11:59:45.836Z,20.50
2019-04-19T12:02:18.006Z,20.20
2019-04-19T12:04:48.528Z,19.50
2019-04-19T12:07:19.186Z,20.00
2019-04-19T12:09:50.351Z,20.40
2019-04-19T12:12:21.732Z,20.20
2019-04-19T12:14:55.640Z,20.50
2019-04-19T12:17:29.156Z,20.30
2019-04-19T12:20:05.764Z,20.10
2019-04-19T12:22:37.775Z,20.10
2019-04-19T12:25:09.911Z,20.00
2019-04-19T12:27:55.010Z,20.20
2019-04-19T12:30:29.466Z,20.10
2019-04-19T12:33:03.531Z,20.00
2019-04-19T12:35:37.530Z,19.80
2019-04-19T12:38:12.408Z,19.60
2019-04-19T12:40:50.435Z,19.70
2019-04-19T12:43:23.721Z,19.90
2019-04-19T12:45:59.029Z,19.70
2019-04-19T12:48:33.070Z,19.80
2019-04-19T12:51:09.982Z,19.50
2019-04-19T12:53:41.280Z,19.70
2019-04-19T12:56:13.840Z,19.30
2019-04-19T12:58:46.529Z,19.90
2019-04-19T13:01:24.028Z,19.80
2019-04-19T13:04:10.739Z,20.00
2019-04-19T13:07:26.870Z,19.80
2019-04-19T13:09:59.268Z,19.30
2019-04-19T13:12:32.844Z,19.00
2019-04-19T13:15:54.430Z,18.90
2019-04-19T13:17:58.214Z,19.10
2019-04-19T13:20:44.476Z,19.60
2019-04-19T13:24:02.499Z,19.40
2019-04-19T13:29:25.374Z,18.80
2019-04-19T13:32:02.044Z,19.00
2019-04-19T13:34:39.174Z,19.60
2019-04-19T13:40:30.341Z,19.40
2019-04-19T13:43:09.293Z,18.80
2019-04-19T13:45:46.515Z,18.60
2019-04-19T13:48:20.739Z,19.00
2019-04-19T13:51:32.363Z,18.90
2019-04-19T13:54:09.706Z,19.00
2019-04-19T13:56:48.080Z,19.60
2019-04-19T13:59:35.525Z,20.50
2019-04-19T14:02:06.541Z,21.40
2019-04-19T14:04:41.615Z,21.90
2019-04-19T14:07:15.002Z,22.20
2019-04-19T14:09:49.451Z,22.60
2019-04-19T14:12:29.585Z,23.20
2019-04-19T14:15:05.310Z,23.00
2019-04-19T14:17:42.164Z,23.10
2019-04-19T14:20:31.445Z,23.30
2019-04-19T14:26:51.729Z,23.20
2019-04-19T14:29:19.170Z,23.40
2019-04-19T14:31:54.559Z,23.30
2019-04-19T14:34:35.324Z,23.20
2019-04-19T14:37:48.468Z,23.70
2019-04-19T14:40:00.623Z,23.80
2019-04-19T14:42:43.001Z,23.30
2019-04-19T14:45:17.138Z,23.30
2019-04-19T14:47:57.019Z,22.70
2019-04-19T14:50:47.626Z,23.20
2019-04-19T14:53:15.466Z,23.50
2019-04-19T14:56:00.557Z,23.80
2019-04-19T15:02:00.644Z,23.90
2019-04-19T15:04:44.743Z,24.10
2019-04-19T15:07:18.664Z,24.00
2019-04-19T15:10:35.565Z,24.30
2019-04-19T15:13:26.671Z,24.30
2019-04-19T15:16:16.180Z,24.70
2019-04-19T15:19:08.765Z,24.70
2019-04-19T15:22:15.019Z,24.90
2019-04-19T15:25:37.083Z,24.90
2019-04-19T15:28:27.427Z,24.70
2019-04-19T15:31:14.197Z,24.40
2019-04-19T15:33:48.493Z,24.50
2019-04-19T15:37:22.989Z,24.40
2019-04-19T15:40:12.237Z,24.30
2019-04-19T15:43:17.120Z,24.30
2019-04-19T15:52:05.857Z,24.50
2019-04-19T15:54:57.622Z,24.20
2019-04-19T15:57:50.236Z,24.00
2019-04-19T16:01:07.960Z,24.10
2019-04-19T16:04:03.856Z,24.50
2019-04-19T16:07:50.224Z,24.80
2019-04-19T16:11:17.079Z,24.60
2019-04-19T16:16:05.809Z,24.50
2019-04-19T16:17:27.255Z,24.60
2019-04-19T16:29:05.929Z,24.50
2019-04-19T16:31:47.183Z,24.20
2019-04-19T16:34:25.023Z,24.50
2019-04-19T16:37:45.012Z,24.30
2019-04-19T16:41:29.006Z,23.70
2019-04-19T16:44:07.383Z,23.70
2019-04-19T16:46:47.856Z,23.90
2019-04-19T16:49:20.409Z,23.00
2019-04-19T16:52:02.636Z,23.10
2019-04-19T16:55:01.111Z,23.00
2019-04-19T16:57:31.738Z,23.10
2019-04-19T17:01:44.502Z,23.40
2019-04-19T17:16:21.041Z,24.40
2019-04-19T17:18:56.884Z,24.40
2019-04-19T17:22:13.824Z,24.20
2019-04-19T17:27:41.024Z,24.30
2019-04-19T17:30:36.259Z,24.10
2019-04-19T17:36:03.992Z,24.30
2019-04-19T17:46:10.556Z,24.70
2019-04-19T17:53:00.334Z,24.50
2019-04-19T17:55:47.300Z,24.60
2019-04-19T17:58:19.151Z,24.70
2019-04-19T18:01:20.101Z,24.80
2019-04-19T18:03:59.255Z,24.80
2019-04-19T18:06:44.251Z,24.60
2019-04-19T18:09:22.832Z,24.80
2019-04-19T18:12:21.158Z,24.80
2019-04-19T18:15:05.694Z,24.90
2019-04-19T18:18:12.443Z,24.70
2019-04-19T18:21:16.768Z,24.90
2019-04-19T18:24:45.385Z,25.10
2019-04-19T18:27:22.766Z,25.00
2019-04-19T18:30:01.977Z,25.00
2019-04-19T18:33:33.480Z,24.70
2019-04-19T18:36:20.070Z,24.70
2019-04-19T18:38:58.428Z,24.70
2019-04-19T18:41:45.499Z,24.90
2019-04-19T18:44:41.198Z,25.10
2019-04-19T18:50:04.785Z,25.90
2019-04-19T18:52:48.738Z,26.00
2019-04-19T18:55:16.980Z,25.90
2019-04-19T19:05:05.252Z,26.60
2019-04-19T19:07:49.380Z,26.50
2019-04-19T19:10:41.064Z,26.80
2019-04-19T19:13:24.538Z,26.60
2019-04-19T19:16:02.266Z,26.90
2019-04-19T19:18:45.832Z,26.70
2019-04-19T19:21:33.927Z,27.00
2019-04-19T19:25:12.664Z,26.80
2019-04-19T19:27:44.045Z,27.00
2019-04-19T19:30:38.755Z,27.30
2019-04-19T19:33:23.844Z,27.00
2019-04-19T19:36:03.572Z,27.40
2019-04-19T19:38:50.338Z,27.60
2019-04-19T19:41:40.377Z,27.80
2019-04-19T19:46:54.231Z,28.10
2019-04-19T19:49:49.012Z,28.40
2019-04-19T19:52:44.312Z,28.50
2019-04-19T19:55:24.024Z,28.50
2019-04-19T19:57:55.356Z,28.70
2019-04-19T20:00:34.658Z,28.90
2019-04-19T20:03:34.412Z,29.10
2019-04-19T20:06:31.251Z,29.10
2019-04-19T20:09:24.697Z,29.40
2019-04-19T20:12:17.778Z,29.80
2019-04-19T20:15:04.909Z,29.30
2019-04-19T20:18:44.237Z,29.20
2019-04-19T20:21:45.107Z,29.40
2019-04-19T20:24:58.115Z,29.40
2019-04-19T20:27:33.521Z,29.10
2019-04-19T20:30:08.575Z,28.80
2019-04-19T20:33:00.549Z,29.00
2019-04-19T20:35:52.278Z,29.20
2019-04-19T20:38:30.201Z,29.40
2019-04-19T20:41:00.222Z,29.70
2019-04-19T20:43:50.072Z,29.40
2019-04-19T20:47:16.137Z,29.50
2019-04-19T20:50:42.624Z,29.70
2019-04-19T20:53:32.357Z,29.80
2019-04-19T20:56:48.583Z,30.00
2019-04-19T20:59:18.227Z,30.50
2019-04-19T21:02:18.778Z,31.00
2019-04-19T21:05:24.171Z,31.30
2019-04-19T21:08:12.648Z,31.20
2019-04-19T21:10:57.890Z,31.00
2019-04-19T21:13:38.232Z,30.60
2019-04-19T21:16:16.236Z,30.60
2019-04-19T21:19:04.129Z,31.00
2019-04-19T21:21:33.498Z,31.30
2019-04-19T21:24:18.706Z,31.80
2019-04-19T21:27:25.846Z,32.40
2019-04-19T21:30:00.535Z,33.40
2019-04-19T21:32:34.180Z,34.20
2019-04-19T21:35:12.596Z,34.70
2019-04-19T21:37:48.182Z,35.30
2019-04-19T21:40:29.913Z,35.70
2019-04-19T21:43:02.981Z,36.20
2019-04-19T21:45:47.117Z,36.70
2019-04-19T21:48:24.880Z,36.90
2019-04-19T21:50:57.631Z,37.30
2019-04-19T21:53:56.749Z,37.70
2019-04-19T21:56:33.535Z,38.10
2019-04-19T21:59:07.026Z,38.30
2019-04-19T22:01:51.028Z,38.60
2019-04-19T22:04:45.773Z,38.80
2019-04-19T22:07:14.936Z,39.20
2019-04-19T22:09:49.694Z,39.30
2019-04-19T22:12:24.212Z,39.60
2019-04-19T22:15:01.772Z,39.90
2019-04-19T22:17:38.275Z,40.10
2019-04-19T22:20:14.262Z,40.40
2019-04-19T22:22:43.425Z,40.50
2019-04-19T22:25:31.089Z,40.90
2019-04-19T22:28:12.802Z,41.10
2019-04-19T22:30:54.667Z,41.30
2019-04-19T22:33:28.107Z,41.50
2019-04-19T22:36:06.898Z,41.80
2019-04-19T22:38:50.144Z,42.00
2019-04-19T22:41:26.775Z,42.30
2019-04-19T22:44:01.183Z,42.80
2019-04-19T22:47:03.795Z,42.90
2019-04-19T22:49:40.904Z,42.90
2019-04-19T22:52:12.859Z,42.90
2019-04-19T22:54:48.797Z,43.10
2019-04-19T22:57:34.262Z,43.30
2019-04-19T23:00:05.757Z,43.40
2019-04-19T23:02:58.971Z,43.60
2019-04-19T23:05:45.132Z,43.70
2019-04-19T23:08:27.215Z,43.90
2019-04-19T23:10:59.087Z,44.10
2019-04-19T23:13:27.411Z,44.60
2019-04-19T23:16:11.557Z,44.30
2019-04-19T23:18:48.119Z,44.50
2019-04-19T23:21:26.454Z,44.80
2019-04-19T23:24:01.301Z,44.90
2019-04-19T23:26:57.362Z,45.10
2019-04-19T23:29:02.366Z,45.80
2019-04-19T23:31:59.354Z,46.10
2019-04-19T23:35:02.272Z,46.50
2019-04-19T23:38:07.301Z,46.80
2019-04-19T23:40:46.402Z,47.30
2019-04-19T23:43:26.336Z,47.30
2019-04-19T23:46:18.415Z,47.50
2019-04-19T23:55:00.169Z,48.00
2019-04-19T23:57:39.529Z,48.50
